Aledo, IL

12:20 AM CDT on August 01, 2014 (GMT -0500)
Galesburg Municipal (KGBG) Elev 764 ft | 40.94 °N, 90.43 °W | Change Station

Current weather conditions updated 5 minutes ago

Clear
Clear
62 °F
Feels Like 62 °F
N
0
Wind Variable Wind from North

Today is forecast to be Cooler than yesterday. A few thunderstorms possible.

Today
High -- | Low -- °F
--% Chance of Precip.
Yesterday
High -- | Low -- °F
Precip. -- in
5:58 AM 8:19 PM
Waxing Crescent, 23% visible
Pressure 30.07 in
Visibility 7.0 miles
Clouds Clear
Dew Point 60 °F
Humidity 95%
Rainfall 0.00 in
Snow Depth Not available.
UV 0 out of 12
Pollen 6.90 out of 12
Air Quality Not available.
Flu Activity Not available.
METAR KGBG 010515Z AUTO 00000KT 7SM CLR 17/16 A3007 RMK AO2 T01650157

More Conditions Fewer Conditions

Pressure 30.07 in
Visibility 7.0 miles
Clouds Clear
Dew Point 60 °F
Humidity 95%
Rainfall 0.00 in
Snow Depth Not available.
UV 0 out of 12
Pollen 6.90 out of 12
Air Quality Not available.
Flu Activity Not available.
METAR KGBG 010515Z AUTO 00000KT 7SM CLR 17/16 A3007 RMK AO2 T01650157

More Conditions Fewer Conditions

10-Day Weather Forecast

Almanac

Astronomy

Aug. 01, 2014 Rise Set
Actual Time 5:58 AM CDT 8:19 PM CDT
Civil Twilight 5:27 AM CDT 8:50 PM CDT
Nautical Twilight 4:49 AM CDT 9:28 PM CDT
Astronomical Twilight 4:06 AM CDT 10:11 PM CDT
Moon 11:26 AM CDT 11:00 PM CDT
Length of Visible Light 15h 23m
Length of Day
14h 21m
Tomorrow will be 2m 6s shorter.
Waxing Crescent, 23% of the Moon is Illuminated
Today
Waxing Crescent
Aug 3
First Quarter
Aug 10
Full
Aug 17
Last Quarter
Aug 25
New

Today's Extremes

State Highs State Lows

Community

WunderPhotos

Upload Photos

1,739,516 photos uploaded!

Nearby

Snow Depth

Station Depth Elevation
No new snow has been reported.

Earthquake Activity

City Distance Mag. Time & Date
No recent earthquake activity has been reported nearby.
Minimum magnitude displayed is 2.5.

Coastal Water Temperatures

Place Temperature
No Stations Reporting

Nearby Weather Stations

Station Location Temp. Heat Index Dew Point Humidity Wind Precip. Elev Updated Type
Aledo, IL 71.4 °F 75 °F 61 °F 69% WSW  at  0.0 mph 0.00 in / hr 735 ft 11:03 PM CDT Rapid Fire
Milan, IL 64.0 °F - 60 °F 86% SW  at  0.0 mph 0.00 in / hr 653 ft 12:16 AM CDT Normal
West Central Davenport, Davenport, IA 68.9 °F - 58 °F 67% West  at  0.0 mph 0.00 in / hr 704 ft 12:19 AM CDT Rapid Fire
CPS, Biggsville, IL 65.6 °F - 63 °F 90% SSE  at  0.0 mph 0.00 in / hr 659 ft 12:16 AM CDT Normal

Show More Stations Show Fewer Stations